Time;durP1;ratioP1;P1;durP2;ratioP2;P2;SDS_P1;SDS_P2;PMS_P1;PMS_P2;Temp;Humidity;BMP_temperature;BMP_pressure;BME280_temperature;BME280_humidity;BME280_pressure;Samples;Min_cycle;Max_cycle;Signal;HPM_P1;HPM_P2
2022/05/18 00:01:20;;;;;;;133.70;123.68;;;19.90;83.20;;;;;;4977600;28;20046;-70
2022/05/18 00:03:48;;;;;;;132.88;122.68;;;19.90;83.30;;;;;;4977378;28;20074;-70
2022/05/18 00:06:15;;;;;;;135.27;125.10;;;19.90;83.60;;;;;;4977327;28;20047;-70
2022/05/18 00:08:42;;;;;;;133.43;123.32;;;19.80;83.70;;;;;;4977358;28;20051;-70
2022/05/18 00:11:12;;;;;;;132.38;122.03;;;19.70;84.00;;;;;;4977040;28;20592;-71
2022/05/18 00:13:40;;;;;;;133.40;123.30;;;19.60;84.40;;;;;;4977703;28;20059;-70
2022/05/18 00:16:08;;;;;;;135.88;125.35;;;19.60;84.70;;;;;;4995023;28;20058;-70
2022/05/18 00:18:35;;;;;;;135.38;124.97;;;19.50;85.10;;;;;;4977064;28;20057;-70
2022/05/18 00:21:04;;;;;;;135.65;125.15;;;19.40;85.40;;;;;;4961261;28;20057;-70
2022/05/18 00:23:31;;;;;;;134.57;123.88;;;19.40;85.90;;;;;;4994263;28;20089;-70
2022/05/18 00:25:58;;;;;;;134.98;124.43;;;19.30;86.00;;;;;;4976983;28;20130;-70
2022/05/18 00:28:25;;;;;;;134.00;123.35;;;19.30;86.40;;;;;;4976830;28;20568;-70
2022/05/18 00:30:53;;;;;;;134.32;123.82;;;19.20;86.80;;;;;;4976949;28;20059;-70
2022/05/18 00:33:20;;;;;;;134.48;123.97;;;19.20;87.10;;;;;;4977099;28;20053;-70
2022/05/18 00:35:47;;;;;;;136.25;125.60;;;19.20;87.60;;;;;;4977173;28;20158;-70
2022/05/18 00:38:16;;;;;;;132.65;122.32;;;19.10;87.70;;;;;;4994611;28;20050;-70
2022/05/18 00:40:46;;;;;;;132.98;122.60;;;19.10;87.70;;;;;;4994584;28;20128;-70
2022/05/18 00:43:19;;;;;;;132.98;122.57;;;19.10;88.10;;;;;;4976921;28;20065;-70
2022/05/18 00:45:46;;;;;;;133.15;122.88;;;19.00;88.40;;;;;;4976879;28;20632;-70
2022/05/18 00:48:14;;;;;;;135.95;125.50;;;19.00;88.50;;;;;;4976420;28;20051;-70
2022/05/18 00:50:42;;;;;;;134.63;124.10;;;19.00;88.60;;;;;;4976998;28;20059;-70
2022/05/18 00:53:15;;;;;;;133.18;122.90;;;19.00;88.80;;;;;;4994126;28;20058;-70
2022/05/18 00:55:48;;;;;;;133.07;122.70;;;19.00;88.90;;;;;;4977223;28;20576;-70
2022/05/18 00:58:20;;;;;;;133.85;123.35;;;19.00;88.90;;;;;;4994214;28;20649;-70
2022/05/18 01:00:49;;;;;;;133.15;122.75;;;18.90;89.10;;;;;;4977053;28;20512;-70
2022/05/18 01:03:21;;;;;;;132.25;121.72;;;18.90;89.40;;;;;;4994316;28;20498;-70
2022/05/18 01:05:53;;;;;;;133.30;122.70;;;18.90;89.80;;;;;;4976480;28;20043;-70
2022/05/18 01:08:30;;;;;;;133.85;123.35;;;18.80;90.00;;;;;;4976092;28;20058;-70
2022/05/18 01:10:58;;;;;;;132.45;122.10;;;18.70;90.10;;;;;;4976632;28;20443;-70
2022/05/18 01:13:25;;;;;;;132.73;121.95;;;18.70;90.30;;;;;;4976394;28;20051;-70
2022/05/18 01:15:52;;;;;;;132.57;121.95;;;18.60;90.50;;;;;;4976176;28;20529;-70
2022/05/18 01:18:20;;;;;;;133.40;123.00;;;18.60;90.60;;;;;;4976036;28;20051;-70
2022/05/18 01:20:48;;;;;;;132.77;122.35;;;18.50;90.80;;;;;;4976221;28;20422;-70
2022/05/18 01:23:30;;;;;;;133.20;122.93;;;18.50;91.00;;;;;;4976791;28;20051;-70
2022/05/18 01:26:17;;;;;;;132.93;122.00;;;18.50;90.90;;;;;;4975619;28;20556;-70
2022/05/18 01:28:52;;;;;;;131.27;120.90;;;18.50;90.90;;;;;;4976206;28;20136;-70
2022/05/18 01:31:37;;;;;;;132.82;122.50;;;18.50;91.00;;;;;;4975893;28;20528;-70
2022/05/18 01:34:04;;;;;;;130.35;120.10;;;18.50;91.00;;;;;;4976360;28;20054;-70
2022/05/18 01:36:31;;;;;;;131.40;120.90;;;18.50;90.90;;;;;;4993545;28;20054;-70
2022/05/18 01:38:59;;;;;;;131.40;121.32;;;18.50;90.80;;;;;;4976117;28;20151;-70
2022/05/18 01:41:31;;;;;;;131.82;121.82;;;18.50;90.80;;;;;;4976244;28;20043;-70
2022/05/18 01:44:01;;;;;;;130.20;120.00;;;18.60;90.90;;;;;;4976111;28;20050;-70
2022/05/18 01:46:30;;;;;;;129.70;119.50;;;18.60;90.80;;;;;;4976321;28;20129;-70
2022/05/18 01:48:57;;;;;;;133.70;123.30;;;18.50;90.80;;;;;;4992508;28;20078;-70
2022/05/18 01:51:29;;;;;;;130.20;119.93;;;18.50;91.00;;;;;;4993204;28;20054;-70
2022/05/18 01:53:56;;;;;;;130.77;120.78;;;18.50;90.80;;;;;;4976132;28;20058;-70
2022/05/18 01:56:23;;;;;;;131.60;121.30;;;18.50;90.90;;;;;;4993500;28;20047;-70
2022/05/18 01:58:50;;;;;;;133.07;122.88;;;18.50;90.90;;;;;;4993039;28;20138;-70
2022/05/18 02:01:20;;;;;;;131.38;121.18;;;18.50;90.90;;;;;;4992867;28;20150;-70
2022/05/18 02:03:47;;;;;;;132.13;121.65;;;18.40;90.90;;;;;;4975792;28;20604;-70
2022/05/18 02:06:14;;;;;;;130.48;120.07;;;18.50;90.90;;;;;;4975705;28;20463;-70
2022/05/18 02:08:42;;;;;;;131.05;120.93;;;18.40;90.80;;;;;;4975531;28;20074;-70
2022/05/18 02:11:12;;;;;;;131.65;121.32;;;18.40;90.80;;;;;;4975612;28;20129;-70
2022/05/18 02:13:39;;;;;;;129.10;118.93;;;18.40;90.80;;;;;;4992683;28;20466;-70
2022/05/18 02:16:07;;;;;;;130.88;120.25;;;18.40;90.80;;;;;;4975849;28;20057;-70
2022/05/18 02:18:36;;;;;;;130.43;120.10;;;18.40;90.70;;;;;;4975294;28;20043;-70
2022/05/18 02:21:04;;;;;;;131.07;120.70;;;18.50;90.70;;;;;;4975530;28;20114;-70
2022/05/18 02:23:31;;;;;;;131.68;121.43;;;18.40;90.70;;;;;;4992988;28;20054;-70
2022/05/18 02:25:59;;;;;;;131.88;121.65;;;18.40;90.60;;;;;;4992580;28;20051;-70
2022/05/18 02:28:26;;;;;;;131.38;120.85;;;18.40;90.60;;;;;;4992739;28;20070;-70
2022/05/18 02:30:53;;;;;;;131.00;120.90;;;18.40;90.70;;;;;;4992975;28;20134;-70
2022/05/18 02:33:20;;;;;;;130.80;120.68;;;18.30;90.60;;;;;;4975505;28;20138;-70
2022/05/18 02:35:48;;;;;;;132.07;121.78;;;18.30;90.70;;;;;;4992799;28;20134;-70
2022/05/18 02:38:15;;;;;;;129.77;119.47;;;18.30;90.70;;;;;;4974727;28;20133;-70
2022/05/18 02:40:42;;;;;;;132.07;121.75;;;18.30;90.70;;;;;;4992801;28;20053;-70
2022/05/18 02:43:09;;;;;;;132.57;122.28;;;18.30;90.60;;;;;;4991582;28;20051;-70
2022/05/18 02:45:36;;;;;;;131.73;121.50;;;18.30;90.60;;;;;;4975494;28;20563;-70
2022/05/18 02:48:03;;;;;;;136.65;126.00;;;18.40;90.50;;;;;;4992459;28;20449;-70
2022/05/18 02:50:32;;;;;;;131.73;121.10;;;18.40;90.40;;;;;;4974698;28;20470;-70
2022/05/18 02:53:01;;;;;;;132.23;121.72;;;18.40;90.40;;;;;;4974552;28;20511;-70
2022/05/18 02:58:12;;;;;;;;;;;18.30;90.60;;;;;;4992255;28;20077;-70
2022/05/18 03:00:39;;;;;;;131.02;120.40;;;18.30;89.90;;;;;;4974626;28;19930;-70
2022/05/18 03:03:07;;;;;;;130.60;120.20;;;18.20;90.40;;;;;;4977548;28;20580;-70
2022/05/18 03:05:34;;;;;;;131.52;121.20;;;18.30;90.60;;;;;;4978276;28;20138;-70
2022/05/18 03:08:02;;;;;;;129.15;118.72;;;18.20;90.50;;;;;;4995087;28;20070;-70
2022/05/18 03:10:29;;;;;;;161.32;122.72;;;18.20;90.50;;;;;;4977913;28;20134;-70
2022/05/18 03:12:56;;;;;;;132.90;119.55;;;18.20;90.50;;;;;;4993507;28;20509;-70
2022/05/18 03:15:22;;;;;;;129.18;118.57;;;18.20;90.40;;;;;;4997157;28;20446;-70
2022/05/18 03:17:49;;;;;;;129.30;118.90;;;18.20;90.20;;;;;;5014618;28;20058;-70
2022/05/18 03:25:43;;;;;;;129.70;119.30;;;18.20;90.10;;;;;;4997179;28;20077;-70
2022/05/18 03:28:09;;;;;;;127.55;117.15;;;18.20;90.10;;;;;;4997194;28;20055;-70
2022/05/18 03:30:36;;;;;;;130.95;120.55;;;18.20;90.10;;;;;;4997355;28;20060;-70
2022/05/18 03:33:04;;;;;;;129.88;119.30;;;18.10;90.10;;;;;;4997485;28;20109;-70
2022/05/18 03:35:31;;;;;;;129.85;119.15;;;18.10;90.10;;;;;;4997357;28;20065;-70
2022/05/18 03:37:58;;;;;;;130.00;119.50;;;18.10;90.20;;;;;;4996871;28;20148;-70
2022/05/18 03:40:25;;;;;;;129.85;119.35;;;18.10;90.20;;;;;;4996831;28;20647;-70
2022/05/18 03:42:54;;;;;;;130.98;120.32;;;18.00;90.00;;;;;;4997391;28;20398;-70
2022/05/18 03:45:21;;;;;;;132.02;121.30;;;18.00;90.00;;;;;;4997000;28;20061;-70
2022/05/18 03:47:48;;;;;;;132.20;121.57;;;18.00;89.90;;;;;;4997281;28;20607;-70
2022/05/18 03:50:15;;;;;;;131.43;120.82;;;18.00;89.90;;;;;;5014499;28;20128;-70
2022/05/18 03:52:42;;;;;;;130.60;120.20;;;18.00;89.90;;;;;;4997147;28;20089;-70
2022/05/18 03:55:09;;;;;;;132.45;122.03;;;18.00;89.90;;;;;;4997265;28;20525;-70
2022/05/18 03:57:36;;;;;;;132.00;121.45;;;18.00;90.00;;;;;;5014359;28;20047;-70
2022/05/18 04:00:06;;;;;;;132.02;121.45;;;18.00;89.90;;;;;;4997042;28;20173;-70
2022/05/18 04:02:34;;;;;;;135.45;124.40;;;18.00;89.80;;;;;;5014780;28;20137;-70
2022/05/18 04:05:01;;;;;;;133.98;123.38;;;17.90;89.70;;;;;;4997196;28;20047;-70
2022/05/18 04:07:28;;;;;;;129.85;119.40;;;17.90;89.70;;;;;;4996680;28;20050;-70
2022/05/18 04:09:55;;;;;;;130.52;119.72;;;17.90;89.80;;;;;;5014578;28;20339;-70
2022/05/18 04:12:22;;;;;;;130.15;119.75;;;17.90;90.00;;;;;;5014321;28;20057;-70
2022/05/18 04:14:54;;;;;;;130.07;119.57;;;17.90;90.10;;;;;;4996756;28;20051;-70
2022/05/18 04:17:22;;;;;;;133.25;122.30;;;17.80;90.10;;;;;;4996783;28;20580;-70
2022/05/18 04:19:49;;;;;;;130.35;119.55;;;17.90;90.20;;;;;;5014499;28;20485;-70
2022/05/18 04:22:16;;;;;;;131.30;120.90;;;17.80;90.20;;;;;;4996976;28;20046;-70
2022/05/18 04:24:43;;;;;;;132.30;121.57;;;17.80;90.30;;;;;;4996493;28;20479;-70
2022/05/18 04:27:11;;;;;;;135.02;124.13;;;17.80;90.40;;;;;;4996278;28;20152;-70
2022/05/18 04:29:38;;;;;;;130.60;119.82;;;17.80;90.60;;;;;;5014401;28;20054;-70
2022/05/18 04:32:06;;;;;;;130.45;119.60;;;17.80;90.80;;;;;;4996561;28;20050;-70
2022/05/18 04:34:35;;;;;;;130.15;119.45;;;17.70;91.10;;;;;;4996263;28;20540;-69
2022/05/18 04:37:02;;;;;;;134.32;123.60;;;17.70;90.90;;;;;;5013805;28;20042;-70
2022/05/18 04:39:29;;;;;;;129.93;119.43;;;17.70;91.10;;;;;;4996306;28;20046;-70
2022/05/18 04:41:56;;;;;;;131.50;120.85;;;17.70;91.20;;;;;;5014237;28;20137;-70
2022/05/18 04:44:23;;;;;;;130.27;119.97;;;17.70;91.30;;;;;;4996693;28;20333;-70
2022/05/18 04:46:50;;;;;;;131.00;120.50;;;17.70;91.30;;;;;;5014148;28;20054;-70
2022/05/18 04:49:16;;;;;;;132.07;121.28;;;17.70;91.40;;;;;;4996200;28;20050;-70
2022/05/18 04:51:45;;;;;;;132.98;122.38;;;17.70;91.60;;;;;;5014052;28;20142;-70
2022/05/18 04:54:12;;;;;;;132.07;121.47;;;17.70;91.70;;;;;;4993355;28;20122;-70
2022/05/18 04:56:38;;;;;;;131.95;121.22;;;17.70;91.70;;;;;;4987518;28;20054;-70
2022/05/18 04:59:05;;;;;;;130.57;120.13;;;17.70;92.10;;;;;;5003243;28;20131;-70
2022/05/18 05:01:34;;;;;;;130.98;120.43;;;17.70;92.00;;;;;;4976677;28;20086;-70
2022/05/18 05:04:01;;;;;;;130.68;119.78;;;17.60;92.30;;;;;;4994081;28;20489;-70
2022/05/18 05:06:28;;;;;;;128.93;118.43;;;17.60;92.60;;;;;;4976504;28;20050;-70
2022/05/18 05:08:56;;;;;;;133.95;123.13;;;17.60;92.90;;;;;;4993896;28;20130;-70
2022/05/18 05:11:23;;;;;;;131.02;120.43;;;17.50;93.10;;;;;;4994339;28;20137;-70
2022/05/18 05:13:50;;;;;;;128.90;118.40;;;17.50;93.30;;;;;;4976359;28;20055;-70
2022/05/18 05:16:17;;;;;;;128.50;118.00;;;17.50;93.50;;;;;;4993677;28;20173;-70
2022/05/18 05:18:44;;;;;;;132.73;121.93;;;17.50;93.60;;;;;;4976762;28;20077;-70
2022/05/18 05:21:11;;;;;;;132.50;121.75;;;17.50;93.70;;;;;;4976644;28;20787;-70
2022/05/18 05:23:38;;;;;;;131.57;120.35;;;17.50;93.80;;;;;;4976110;28;20058;-70
2022/05/18 05:26:07;;;;;;;132.32;121.38;;;17.50;94.00;;;;;;4975602;28;20055;-70
2022/05/18 05:28:34;;;;;;;132.93;121.93;;;17.50;94.20;;;;;;4975931;28;20065;-70
2022/05/18 05:31:04;;;;;;;134.68;123.63;;;17.50;94.30;;;;;;4993927;28;20513;-70
2022/05/18 05:33:32;;;;;;;131.90;120.93;;;17.50;94.40;;;;;;4996422;28;20465;-70
2022/05/18 05:35:59;;;;;;;137.43;125.97;;;17.50;94.50;;;;;;5003796;28;20145;-70
2022/05/18 05:38:26;;;;;;;132.90;121.88;;;17.50;94.70;;;;;;5006327;28;20054;-70
2022/05/18 05:40:54;;;;;;;134.70;123.40;;;17.50;94.70;;;;;;5010266;28;20060;-70
2022/05/18 05:43:22;;;;;;;134.38;123.15;;;17.60;94.80;;;;;;5001180;28;20046;-69
2022/05/18 05:45:55;;;;;;;137.85;126.40;;;17.60;94.90;;;;;;4993620;28;20142;-69
2022/05/18 05:48:22;;;;;;;133.23;122.03;;;17.70;95.20;;;;;;5000351;28;20056;-72
2022/05/18 05:50:49;;;;;;;134.98;123.68;;;17.70;95.10;;;;;;4982838;28;20167;-72
2022/05/18 05:53:16;;;;;;;135.38;123.00;;;17.70;95.40;;;;;;4980278;28;20047;-72
2022/05/18 05:55:43;;;;;;;132.95;121.78;;;17.70;95.20;;;;;;4980485;28;20054;-72
2022/05/18 05:58:10;;;;;;;134.85;123.65;;;17.80;95.30;;;;;;4981095;28;20057;-72
2022/05/18 06:00:38;;;;;;;136.80;125.63;;;17.80;95.40;;;;;;5001491;28;20115;-73
2022/05/18 06:03:05;;;;;;;135.13;123.63;;;17.80;95.40;;;;;;4985381;28;20121;-72
2022/05/18 06:05:32;;;;;;;137.80;126.03;;;17.90;95.40;;;;;;5006633;28;20080;-73
2022/05/18 06:07:59;;;;;;;137.70;126.38;;;18.00;95.50;;;;;;4988464;28;20056;-73
2022/05/18 06:10:26;;;;;;;143.48;131.30;;;18.00;95.50;;;;;;4982463;28;20109;-73
2022/05/18 06:12:53;;;;;;;134.82;123.68;;;18.10;95.60;;;;;;4984213;28;20050;-73
2022/05/18 06:15:20;;;;;;;135.60;124.32;;;18.10;95.60;;;;;;4982689;28;20051;-73
2022/05/18 06:17:48;;;;;;;135.60;124.50;;;18.10;95.60;;;;;;5000139;28;20084;-73
2022/05/18 06:20:15;;;;;;;134.85;124.07;;;18.20;95.70;;;;;;5003022;28;20520;-73
2022/05/18 06:22:42;;;;;;;136.30;125.07;;;18.30;95.60;;;;;;4985985;28;20138;-73
2022/05/18 06:25:12;;;;;;;136.90;125.55;;;18.30;95.60;;;;;;4982889;28;20061;-73
2022/05/18 06:27:40;;;;;;;136.98;125.57;;;18.30;95.70;;;;;;5001296;28;20059;-72
2022/05/18 06:30:08;;;;;;;137.95;126.40;;;18.40;95.80;;;;;;4969841;28;20584;-72
2022/05/18 06:32:35;;;;;;;138.50;126.07;;;18.40;95.70;;;;;;4984319;28;20548;-72
2022/05/18 06:35:04;;;;;;;137.70;126.07;;;18.50;95.70;;;;;;4982978;28;20078;-72
2022/05/18 06:37:31;;;;;;;136.13;125.13;;;18.60;95.70;;;;;;4997746;28;20049;-72
2022/05/18 06:39:58;;;;;;;139.25;127.65;;;18.60;95.70;;;;;;4983727;28;20046;-72
2022/05/18 06:42:25;;;;;;;136.30;125.20;;;18.70;95.70;;;;;;4982990;28;20057;-72
2022/05/18 06:44:52;;;;;;;138.75;127.03;;;18.80;95.70;;;;;;4998544;28;20138;-72
2022/05/18 06:47:18;;;;;;;137.75;126.85;;;18.90;95.70;;;;;;4983975;28;20060;-72
2022/05/18 06:49:47;;;;;;;139.32;128.52;;;18.90;95.50;;;;;;4977757;28;20046;-72
2022/05/18 06:52:15;;;;;;;138.82;127.85;;;19.00;95.50;;;;;;4992366;28;20050;-72
2022/05/18 06:54:42;;;;;;;136.63;125.95;;;19.00;95.40;;;;;;4974976;28;20069;-72
2022/05/18 06:57:08;;;;;;;137.45;126.40;;;19.10;95.30;;;;;;4980244;28;20525;-72
2022/05/18 06:59:35;;;;;;;137.82;127.03;;;19.20;95.20;;;;;;4984893;28;20096;-72
2022/05/18 07:02:02;;;;;;;137.57;126.45;;;19.30;95.20;;;;;;4985060;28;20146;-72
2022/05/18 07:04:29;;;;;;;170.80;130.02;;;19.40;95.20;;;;;;4985715;28;20058;-73
2022/05/18 07:06:57;;;;;;;137.82;126.35;;;19.40;95.10;;;;;;4977449;28;20567;-73
2022/05/18 07:09:26;;;;;;;138.93;127.65;;;19.50;95.20;;;;;;5011507;28;20054;-72
2022/05/18 07:11:54;;;;;;;137.40;126.20;;;19.60;95.00;;;;;;4976383;28;20340;-73
2022/05/18 07:14:25;;;;;;;140.07;128.90;;;19.60;94.80;;;;;;5011279;28;20050;-72
2022/05/18 07:16:52;;;;;;;136.48;125.53;;;19.70;94.80;;;;;;4993842;28;20458;-73
2022/05/18 07:19:20;;;;;;;137.93;126.88;;;19.80;94.70;;;;;;4993170;28;20056;-73
2022/05/18 07:21:47;;;;;;;136.43;125.53;;;19.80;94.40;;;;;;5010511;28;20062;-72
2022/05/18 07:24:15;;;;;;;138.32;127.45;;;19.90;94.30;;;;;;5010887;28;20102;-73
2022/05/18 07:26:43;;;;;;;137.48;126.53;;;20.00;94.30;;;;;;5010522;28;20076;-72
2022/05/18 07:29:11;;;;;;;140.15;129.05;;;20.10;94.30;;;;;;4993801;28;20055;-73
2022/05/18 07:34:21;;;;;;;138.27;127.68;;;20.20;94.10;;;;;;5010158;28;20054;-72
2022/05/18 07:36:50;;;;;;;139.00;128.20;;;20.30;94.10;;;;;;4977144;28;20046;-73
2022/05/18 07:39:17;;;;;;;139.93;129.13;;;20.40;94.10;;;;;;4993575;28;20054;-72
2022/05/18 07:41:45;;;;;;;139.13;128.23;;;20.50;94.00;;;;;;4993549;28;20046;-72
2022/05/18 07:44:12;;;;;;;138.88;128.13;;;20.60;93.30;;;;;;4993778;28;20503;-72
2022/05/18 07:46:39;;;;;;;140.50;129.77;;;20.70;93.20;;;;;;5011162;28;20058;-72
2022/05/18 07:49:06;;;;;;;139.48;128.65;;;20.80;93.20;;;;;;5008049;28;20137;-73
2022/05/18 07:51:33;;;;;;;137.50;126.90;;;20.80;93.10;;;;;;5005314;28;20063;-73
2022/05/18 07:54:00;;;;;;;140.85;129.98;;;20.90;92.90;;;;;;4988172;28;20046;-73
2022/05/18 07:56:28;;;;;;;138.88;128.07;;;21.00;92.30;;;;;;4992921;28;20129;-73
2022/05/18 07:58:56;;;;;;;140.82;129.70;;;21.10;92.20;;;;;;4994104;28;20090;-73
2022/05/18 08:01:23;;;;;;;136.73;126.35;;;21.20;92.10;;;;;;4992242;28;20047;-80
2022/05/18 08:03:50;;;;;;;137.05;126.57;;;21.30;91.60;;;;;;4993954;28;20062;-78
2022/05/18 08:06:16;;;;;;;139.18;128.38;;;21.40;91.40;;;;;;4995980;28;20101;-77
2022/05/18 08:08:43;;;;;;;146.13;135.32;;;21.50;91.00;;;;;;5008454;28;20511;-75
2022/05/18 08:16:41;;;;;;;139.52;129.07;;;21.80;90.30;;;;;;5012389;28;20141;-78
2022/05/18 08:19:10;;;;;;;139.85;129.23;;;21.90;90.20;;;;;;5010860;28;20058;-75
2022/05/18 08:21:38;;;;;;;137.48;126.88;;;22.00;89.50;;;;;;5013656;28;20080;-78
2022/05/18 08:24:07;;;;;;;138.63;128.43;;;22.10;89.30;;;;;;4988261;28;20059;-77
2022/05/18 08:26:34;;;;;;;141.30;130.60;;;22.20;89.00;;;;;;4996110;28;20082;-78
2022/05/18 08:29:04;;;;;;;139.15;128.43;;;22.20;88.50;;;;;;4995549;28;20054;-77
2022/05/18 08:31:31;;;;;;;138.98;128.32;;;22.40;88.40;;;;;;4988485;28;20442;-78
2022/05/18 08:33:58;;;;;;;137.90;127.53;;;22.40;87.70;;;;;;5004164;28;20513;-77
2022/05/18 08:36:26;;;;;;;141.63;130.68;;;22.50;87.70;;;;;;4992560;28;20052;-81
2022/05/18 08:38:54;;;;;;;140.13;129.20;;;22.60;87.60;;;;;;4989015;28;20080;-77
2022/05/18 08:41:23;;;;;;;139.77;129.73;;;22.70;87.70;;;;;;4989254;28;20053;-78
2022/05/18 08:43:53;;;;;;;140.23;130.07;;;22.80;87.00;;;;;;4992471;28;20054;-78
2022/05/18 08:46:30;;;;;;;141.30;130.50;;;22.90;86.70;;;;;;4991596;28;20073;-78
2022/05/18 08:49:06;;;;;;;139.80;129.38;;;23.00;86.60;;;;;;4990195;28;20045;-79
2022/05/18 08:51:44;;;;;;;137.93;127.45;;;23.10;86.20;;;;;;5005416;28;20051;-77
2022/05/18 08:54:24;;;;;;;139.00;128.57;;;23.20;85.50;;;;;;4993147;28;20050;-79
2022/05/18 08:56:53;;;;;;;140.60;130.15;;;23.30;85.80;;;;;;4999011;28;20105;-78
2022/05/18 08:59:25;;;;;;;139.00;128.80;;;23.30;84.90;;;;;;4993673;28;20134;-78
2022/05/18 09:01:58;;;;;;;136.48;126.22;;;23.40;84.60;;;;;;5007572;28;20050;-79
2022/05/18 09:04:30;;;;;;;140.48;130.20;;;23.50;84.00;;;;;;4984311;28;20513;-78
2022/05/18 09:07:04;;;;;;;138.52;128.38;;;23.60;82.40;;;;;;4977261;28;20050;-79
2022/05/18 09:12:23;;;;;;;148.07;137.45;;;23.70;82.10;;;;;;4974547;28;20062;-80
2022/05/18 09:14:51;;;;;;;145.05;134.48;;;23.80;83.00;;;;;;4988926;28;20496;-79
2022/05/18 09:17:33;;;;;;;147.23;136.82;;;23.80;82.10;;;;;;4984250;28;20495;-80
2022/05/18 09:20:13;;;;;;;147.88;137.38;;;23.90;82.30;;;;;;5002984;28;20061;-79
2022/05/18 09:22:54;;;;;;;148.18;137.52;;;23.90;82.20;;;;;;4986313;28;20051;-78
2022/05/18 09:25:31;;;;;;;145.90;135.45;;;24.00;82.40;;;;;;4995014;28;20060;-78
2022/05/18 09:28:11;;;;;;;150.55;139.65;;;24.10;82.30;;;;;;4985933;28;20348;-78
2022/05/18 09:30:48;;;;;;;145.15;134.80;;;24.20;82.00;;;;;;5002118;28;20651;-79
2022/05/18 09:33:39;;;;;;;146.50;136.02;;;24.20;81.40;;;;;;5004068;28;20062;-78
2022/05/18 09:36:33;;;;;;;145.85;135.55;;;24.30;81.30;;;;;;4989543;28;20101;-78
2022/05/18 09:39:04;;;;;;;144.88;134.23;;;24.30;80.80;;;;;;4990516;28;20129;-77
2022/05/18 09:41:35;;;;;;;155.13;144.43;;;24.50;79.70;;;;;;4994646;28;20046;-78
2022/05/18 09:44:10;;;;;;;148.23;137.73;;;24.50;78.70;;;;;;5009230;28;20162;-78
2022/05/18 09:46:37;;;;;;;149.68;139.30;;;24.60;79.30;;;;;;4994416;28;20058;-78
2022/05/18 09:49:12;;;;;;;151.90;141.25;;;24.70;78.50;;;;;;5012045;28;20053;-78
2022/05/18 09:51:39;;;;;;;149.63;139.15;;;24.70;78.20;;;;;;4991917;28;20055;-78
2022/05/18 09:54:07;;;;;;;152.55;142.18;;;24.80;77.60;;;;;;5012508;28;20061;-78
2022/05/18 09:56:41;;;;;;;153.25;142.95;;;24.80;77.50;;;;;;4994369;28;20141;-78
2022/05/18 09:59:14;;;;;;;160.15;148.88;;;24.90;77.80;;;;;;5001755;28;20058;-80
2022/05/18 10:07:34;;;;;;;157.40;146.40;;;25.10;77.40;;;;;;4985500;28;20088;-82
2022/05/18 10:10:10;;;;;;;152.85;142.15;;;25.10;78.10;;;;;;4983438;28;20118;-78
2022/05/18 10:12:45;;;;;;;160.02;148.73;;;25.20;78.50;;;;;;5000709;28;20493;-81
2022/05/18 10:15:27;;;;;;;152.35;141.75;;;25.20;78.50;;;;;;5000220;28;20055;-79
2022/05/18 10:17:56;;;;;;;155.48;144.73;;;25.30;77.90;;;;;;4983406;28;20055;-77
2022/05/18 10:20:28;;;;;;;158.05;147.18;;;25.30;77.00;;;;;;5002771;28;20043;-74
2022/05/18 10:22:57;;;;;;;157.85;146.50;;;25.40;77.10;;;;;;4994244;28;20082;-75
2022/05/18 10:25:29;;;;;;;152.70;142.20;;;25.50;75.70;;;;;;4994109;28;20505;-74
2022/05/18 10:27:57;;;;;;;154.13;143.65;;;25.50;73.90;;;;;;4994100;28;20117;-75
2022/05/18 10:30:29;;;;;;;161.05;149.90;;;25.50;73.50;;;;;;4995059;28;20058;-75
2022/05/18 10:33:00;;;;;;;154.85;143.98;;;25.50;74.00;;;;;;5010398;28;20054;-76
2022/05/18 10:35:47;;;;;;;151.50;141.23;;;25.50;71.60;;;;;;5010320;28;20082;-74
2022/05/18 10:38:33;;;;;;;153.52;142.80;;;25.60;69.40;;;;;;4992718;28;20046;-74
2022/05/18 10:41:12;;;;;;;153.98;143.27;;;25.60;69.00;;;;;;4994786;28;20054;-74
2022/05/18 10:43:42;;;;;;;151.90;141.32;;;25.50;68.70;;;;;;4993252;28;20594;-75
2022/05/18 10:46:11;;;;;;;153.65;143.05;;;25.50;69.30;;;;;;4991492;28;20046;-75
2022/05/18 10:48:39;;;;;;;151.93;141.48;;;25.50;68.80;;;;;;4977580;28;20051;-75
2022/05/18 10:51:11;;;;;;;156.95;146.15;;;25.50;68.60;;;;;;4993147;28;20052;-75
2022/05/18 10:53:41;;;;;;;153.48;142.68;;;25.50;68.20;;;;;;5006199;28;20050;-75
2022/05/18 10:56:11;;;;;;;160.43;149.05;;;25.50;68.90;;;;;;4982884;28;20161;-74
2022/05/18 10:58:43;;;;;;;165.90;154.23;;;25.60;70.20;;;;;;4976175;28;20059;-73
2022/05/18 11:01:19;;;;;;;163.07;151.60;;;25.60;70.60;;;;;;4992352;28;20050;-74
2022/05/18 11:03:55;;;;;;;162.63;151.20;;;25.70;70.70;;;;;;5007634;28;20058;-73
2022/05/18 11:06:27;;;;;;;162.35;151.25;;;25.80;70.50;;;;;;4989935;28;20078;-74
2022/05/18 11:08:58;;;;;;;158.70;147.45;;;25.80;71.30;;;;;;4993097;28;20100;-75
2022/05/18 11:11:39;;;;;;;158.95;148.05;;;25.80;71.00;;;;;;5011164;28;20050;-74
2022/05/18 11:14:16;;;;;;;158.60;147.48;;;25.90;72.00;;;;;;4993078;28;20508;-75
2022/05/18 11:16:57;;;;;;;158.00;147.18;;;25.90;71.50;;;;;;4992320;28;20128;-73
2022/05/18 11:19:37;;;;;;;154.20;143.50;;;26.00;72.10;;;;;;4974229;28;20058;-75
2022/05/18 11:22:25;;;;;;;157.32;146.73;;;26.00;71.10;;;;;;4991672;28;20527;-75
2022/05/18 11:25:07;;;;;;;155.85;145.00;;;26.10;70.80;;;;;;4995216;28;20055;-75
2022/05/18 11:27:46;;;;;;;158.27;147.30;;;26.10;70.60;;;;;;4995058;28;20094;-75
2022/05/18 11:30:17;;;;;;;152.60;142.00;;;26.20;70.50;;;;;;4976869;28;20058;-75
2022/05/18 11:32:58;;;;;;;157.45;146.57;;;26.20;69.40;;;;;;4993838;28;20105;-75
2022/05/18 11:35:40;;;;;;;149.63;139.52;;;26.30;69.00;;;;;;4976423;28;20105;-75
2022/05/18 11:38:32;;;;;;;150.30;140.20;;;26.30;69.40;;;;;;4976117;28;20042;-75
2022/05/18 11:41:09;;;;;;;153.27;142.90;;;26.30;68.50;;;;;;4964864;28;20263;-74
2022/05/18 11:43:45;;;;;;;151.30;141.05;;;26.40;69.20;;;;;;4993272;28;20417;-75
2022/05/18 11:46:44;;;;;;;153.13;143.00;;;26.30;68.70;;;;;;5005607;28;20133;-76
2022/05/18 11:49:18;;;;;;;146.05;136.20;;;26.30;69.10;;;;;;5007289;28;20492;-75
2022/05/18 11:51:56;;;;;;;151.52;141.52;;;26.40;68.70;;;;;;4995016;28;20133;-75
2022/05/18 11:54:36;;;;;;;154.98;144.57;;;26.40;67.90;;;;;;5012886;28;20085;-76
2022/05/18 11:57:17;;;;;;;152.90;142.85;;;26.40;68.00;;;;;;4992876;28;20833;-75
2022/05/18 12:00:00;;;;;;;157.27;146.65;;;26.40;68.30;;;;;;4993148;28;20614;-76
2022/05/18 12:02:52;;;;;;;154.73;144.20;;;26.40;68.60;;;;;;4993110;28;20473;-75
2022/05/18 12:05:43;;;;;;;146.27;136.47;;;26.40;69.80;;;;;;4987041;28;20081;-76
2022/05/18 12:08:39;;;;;;;150.10;139.82;;;26.40;70.10;;;;;;5014253;28;20272;-75
2022/05/18 12:11:16;;;;;;;149.52;139.68;;;26.40;69.70;;;;;;4994881;28;20545;-76
2022/05/18 12:13:55;;;;;;;147.95;137.98;;;26.30;69.60;;;;;;4997964;28;20504;-74
2022/05/18 12:16:29;;;;;;;151.15;140.88;;;26.30;69.70;;;;;;4998914;28;20058;-76
2022/05/18 12:19:07;;;;;;;149.48;139.38;;;26.30;70.40;;;;;;4992436;28;20513;-76
2022/05/18 12:21:39;;;;;;;152.07;141.70;;;26.20;70.60;;;;;;4993956;28;20070;-78
2022/05/18 12:24:08;;;;;;;159.52;148.55;;;26.20;71.50;;;;;;4995568;28;20077;-74
2022/05/18 12:26:40;;;;;;;154.38;144.00;;;26.20;70.20;;;;;;4996324;28;20050;-74
2022/05/18 12:29:08;;;;;;;154.25;143.82;;;26.20;70.30;;;;;;4994912;28;20042;-74
2022/05/18 12:31:36;;;;;;;158.80;148.18;;;26.20;70.20;;;;;;4995196;28;20551;-74
2022/05/18 12:34:07;;;;;;;147.13;137.02;;;26.10;70.40;;;;;;4994476;28;20563;-75
2022/05/18 12:36:37;;;;;;;151.30;140.90;;;26.10;70.90;;;;;;4979067;28;20055;-75
2022/05/18 12:39:12;;;;;;;152.38;141.65;;;26.10;70.90;;;;;;5010830;28;20058;-74
2022/05/18 12:41:44;;;;;;;149.75;139.48;;;26.10;71.30;;;;;;4994047;28;20874;-73
2022/05/18 12:44:13;;;;;;;151.25;140.75;;;26.00;71.00;;;;;;5014232;28;20062;-73
2022/05/18 12:46:46;;;;;;;154.18;143.60;;;26.00;71.60;;;;;;4990492;28;20051;-74
2022/05/18 12:49:28;;;;;;;154.15;143.55;;;26.00;70.90;;;;;;5012603;28;20519;-72